This is the latest recevied weather packets stored in our database for station/object DA6VK-10. If no packets are shown the sender has not sent any weather packets the latest 10 day(s).
| Time | Temp. | Humidity | Pressure | Rain* | Wind** | Luminosity | Snow |
|---|---|---|---|---|---|---|---|
| 1777818525 | 23.89° C | 24% | 1014.9 hPa | - | - | - | - |
| 1777816468 | 23.33° C | 23% | 1015.3 hPa | - | - | - | - |
| 1777813728 | 23.89° C | 23% | 1015.6 hPa | - | - | - | - |
| 1777813677 | 23.89° C | 24% | 1015.7 hPa | - | - | - | - |
| 1777813244 | 24.44° C | 23% | 1015.9 hPa | - | - | - | - |
| 1777813176 | 23.89° C | 23% | 1015.9 hPa | - | - | - | - |
| 1777812730 | 23.89° C | 24% | 1015.9 hPa | - | - | - | - |
| 1777812455 | 23.89° C | 24% | 1015.9 hPa | - | - | - | - |
| 1777812430 | 23.89° C | 24% | 1015.7 hPa | - | - | - | - |
| 1777811410 | 23.89° C | 23% | 1015.8 hPa | - | - | - | - |
| 1777811361 | 23.89° C | 23% | 1015.7 hPa | - | - | - | - |
| 1777811311 | 23.89° C | 23% | 1015.8 hPa | - | - | - | - |
| 1777811210 | 23.89° C | 24% | 1015.9 hPa | - | - | - | - |
| 1777811185 | 23.33° C | 24% | 1015.9 hPa | - | - | - | - |
| 1777811134 | 23.33° C | 24% | 1015.7 hPa | - | - | - | - |
| 1777811084 | 23.33° C | 24% | 1015.8 hPa | - | - | - | - |
| 1777811058 | 23.33° C | 24% | 1015.9 hPa | - | - | - | - |
| 1777811033 | 23.33° C | 25% | 1015.9 hPa | - | - | - | - |
| 1777810982 | 22.78° C | 24% | 1015.8 hPa | - | - | - | - |
| 1777810935 | 22.78° C | 24% | 1015.9 hPa | - | - | - | - |
| 1777810885 | 22.78° C | 25% | 1015.9 hPa | - | - | - | - |
| 1777739407 | 28.33° C | 28% | 1018.1 hPa | - | - | - | - |
| 1777739331 | 28.33° C | 28% | 1018 hPa | - | - | - | - |
| 1777739306 | 28.33° C | 28% | 1018.2 hPa | - | - | - | - |
| 1777739255 | 27.78° C | 28% | 1018.1 hPa | - | - | - | - |
* Rain since midnight (hover to see other rain measurements)
** Current wind speed in m/s (hover to see current wind gust speed)